Time;durP1;ratioP1;P1;durP2;ratioP2;P2;SDS_P1;SDS_P2;PMS_P1;PMS_P2;Temp;Humidity;BMP_temperature;BMP_pressure;BME280_temperature;BME280_humidity;BME280_pressure;Samples;Min_cycle;Max_cycle;Signal;HPM_P1;HPM_P2
2022/02/25 00:00:37;;;;;;;7.63;7.20;;;4.20;99.90;;;;;;4968326;28;20700;-78
2022/02/25 00:03:05;;;;;;;8.50;7.80;;;4.30;99.90;;;;;;4984784;28;20280;-77
2022/02/25 00:05:34;;;;;;;7.90;7.30;;;4.20;99.90;;;;;;4980873;28;20222;-76
2022/02/25 00:08:01;;;;;;;7.83;7.30;;;4.20;99.90;;;;;;4980457;28;20670;-77
2022/02/25 00:10:28;;;;;;;7.83;7.33;;;4.20;99.90;;;;;;4972448;28;20201;-75
2022/02/25 00:12:55;;;;;;;8.23;7.73;;;4.30;99.90;;;;;;4984340;28;20193;-77
2022/02/25 00:15:22;;;;;;;7.93;7.30;;;4.20;99.90;;;;;;4984292;28;20229;-75
2022/02/25 00:17:49;;;;;;;8.20;7.50;;;4.20;99.90;;;;;;4966641;28;20208;-76
2022/02/25 00:20:15;;;;;;;8.17;7.67;;;4.20;99.90;;;;;;4965070;28;20212;-78
2022/02/25 00:22:44;;;;;;;8.67;7.90;;;4.20;99.90;;;;;;4980746;28;20194;-77
2022/02/25 00:25:13;;;;;;;8.60;7.80;;;4.20;99.90;;;;;;4989039;28;20235;-77
2022/02/25 00:27:40;;;;;;;7.90;7.50;;;4.20;99.90;;;;;;4980228;28;20598;-77
2022/02/25 00:30:09;;;;;;;8.37;7.70;;;4.20;99.90;;;;;;4964574;28;20197;-77
2022/02/25 00:32:36;;;;;;;7.80;7.40;;;4.20;99.90;;;;;;4981417;28;20241;-77
2022/02/25 00:35:04;;;;;;;8.27;7.67;;;4.20;99.90;;;;;;4963503;28;20213;-76
2022/02/25 00:37:31;;;;;;;7.80;7.40;;;4.10;99.90;;;;;;4981680;28;20198;-77
2022/02/25 00:39:59;;;;;;;8.40;7.63;;;4.10;99.90;;;;;;4982903;28;20234;-77
2022/02/25 00:42:26;;;;;;;8.10;7.70;;;4.00;99.90;;;;;;4963195;28;20614;-78
2022/02/25 00:44:53;;;;;;;7.90;7.50;;;4.00;99.90;;;;;;4984509;28;20253;-77
2022/02/25 00:47:19;;;;;;;8.43;7.90;;;3.90;99.90;;;;;;4984999;28;20297;-77
2022/02/25 00:49:46;;;;;;;8.10;7.50;;;4.00;99.90;;;;;;4985217;28;20240;-77
2022/02/25 00:52:13;;;;;;;8.00;7.40;;;3.90;99.90;;;;;;4968010;28;20606;-77
2022/02/25 00:54:40;;;;;;;7.80;7.40;;;3.90;99.90;;;;;;4984294;28;20201;-77
2022/02/25 00:57:08;;;;;;;8.00;7.30;;;3.90;99.90;;;;;;4984804;28;20217;-76
2022/02/25 00:59:35;;;;;;;8.00;7.50;;;3.80;99.90;;;;;;4984760;28;20254;-77
2022/02/25 01:02:02;;;;;;;7.80;7.20;;;3.80;99.90;;;;;;4993505;28;20670;-78
2022/02/25 01:04:29;;;;;;;8.00;7.53;;;3.80;99.90;;;;;;4984091;28;20194;-76
2022/02/25 01:06:56;;;;;;;8.17;7.53;;;3.70;99.90;;;;;;4983273;28;20484;-76
2022/02/25 01:09:24;;;;;;;8.70;8.00;;;3.70;99.90;;;;;;4967799;28;20889;-76
2022/02/25 01:11:51;;;;;;;8.40;7.70;;;3.70;99.90;;;;;;4967486;28;20457;-77
2022/02/25 01:14:19;;;;;;;8.33;7.73;;;3.70;99.90;;;;;;4968006;28;20213;-77
2022/02/25 01:16:46;;;;;;;8.33;7.73;;;3.70;99.90;;;;;;4983218;28;20885;-77
2022/02/25 01:19:12;;;;;;;8.10;7.60;;;3.70;99.90;;;;;;4985128;28;20256;-77
2022/02/25 01:21:39;;;;;;;8.20;7.70;;;3.70;99.90;;;;;;4984136;28;20796;-77
2022/02/25 01:24:06;;;;;;;8.60;7.90;;;3.70;99.90;;;;;;4966768;28;20756;-76
2022/02/25 01:26:33;;;;;;;8.33;7.83;;;3.70;99.90;;;;;;4985174;28;20226;-77
2022/02/25 01:29:01;;;;;;;7.90;7.43;;;3.70;99.90;;;;;;4985979;28;20202;-75
2022/02/25 01:31:30;;;;;;;8.20;7.60;;;3.60;99.90;;;;;;4971019;28;20202;-77
2022/02/25 01:33:56;;;;;;;8.30;7.80;;;3.60;99.90;;;;;;4983786;28;20220;-77
2022/02/25 01:36:23;;;;;;;8.30;7.70;;;3.60;99.90;;;;;;4966064;28;20465;-77
2022/02/25 01:38:50;;;;;;;8.00;7.60;;;3.60;99.90;;;;;;4983460;28;20930;-76
2022/02/25 01:41:17;;;;;;;8.60;8.00;;;3.50;99.90;;;;;;4967061;28;20209;-77
2022/02/25 01:43:44;;;;;;;8.30;7.70;;;3.50;99.90;;;;;;4983868;28;20465;-77
2022/02/25 01:46:11;;;;;;;8.60;7.80;;;3.40;99.90;;;;;;4985466;28;20720;-77
2022/02/25 01:48:40;;;;;;;7.97;7.50;;;3.30;99.90;;;;;;4984150;28;20429;-77
2022/02/25 01:51:06;;;;;;;8.17;7.47;;;3.20;99.90;;;;;;4984780;28;20624;-78
2022/02/25 01:53:33;;;;;;;7.73;7.33;;;3.20;99.90;;;;;;4983672;28;20198;-78
2022/02/25 01:56:00;;;;;;;8.17;7.57;;;3.10;99.90;;;;;;4966914;28;20667;-76
2022/02/25 01:58:28;;;;;;;8.13;7.60;;;3.10;99.90;;;;;;4965662;28;20505;-77
2022/02/25 02:00:59;;;;;;;8.53;7.70;;;3.10;99.90;;;;;;4974057;28;20208;-79
2022/02/25 02:03:27;;;;;;;8.43;7.70;;;3.00;99.90;;;;;;4986533;28;20437;-77
2022/02/25 02:05:55;;;;;;;8.20;7.70;;;2.90;99.90;;;;;;4981186;28;20477;-77
2022/02/25 02:08:22;;;;;;;8.20;7.70;;;2.90;99.90;;;;;;4985711;28;20441;-78
2022/02/25 02:10:49;;;;;;;7.90;7.50;;;2.80;99.90;;;;;;4972829;28;20461;-78
2022/02/25 02:13:16;;;;;;;8.10;7.60;;;2.80;99.90;;;;;;4981495;28;20437;-76
2022/02/25 02:15:43;;;;;;;8.20;7.70;;;2.80;99.90;;;;;;4969547;28;20535;-77
2022/02/25 02:18:10;;;;;;;8.03;7.63;;;2.70;99.90;;;;;;4979394;28;20821;-78
2022/02/25 02:20:37;;;;;;;8.10;7.60;;;2.60;99.90;;;;;;4986954;28;20860;-76
2022/02/25 02:23:05;;;;;;;8.20;7.60;;;2.60;99.90;;;;;;4979483;28;20444;-76
2022/02/25 02:25:32;;;;;;;8.50;7.80;;;2.50;99.90;;;;;;4987187;28;20510;-76
2022/02/25 02:30:44;;;;;;;7.90;7.40;;;2.50;99.90;;;;;;4982522;28;20434;-77
2022/02/25 02:33:11;;;;;;;8.53;7.73;;;2.40;99.90;;;;;;4985521;28;20464;-77
2022/02/25 02:35:38;;;;;;;8.47;7.77;;;2.40;99.90;;;;;;4963745;28;20468;-77
2022/02/25 02:38:06;;;;;;;7.90;7.50;;;2.40;99.90;;;;;;4986135;28;20868;-76
2022/02/25 02:40:33;;;;;;;8.17;7.57;;;2.40;99.90;;;;;;4962379;28;20593;-77
2022/02/25 02:43:00;;;;;;;7.90;7.50;;;2.30;99.90;;;;;;4968146;28;20511;-77
2022/02/25 02:45:27;;;;;;;8.37;7.77;;;2.30;99.90;;;;;;4982518;28;20459;-77
2022/02/25 02:47:53;;;;;;;8.37;7.70;;;2.30;99.90;;;;;;4965543;28;20508;-77
2022/02/25 02:50:20;;;;;;;7.90;7.40;;;2.20;99.90;;;;;;4982992;28;20443;-77
2022/02/25 02:52:48;;;;;;;8.17;7.60;;;2.20;99.90;;;;;;4981532;28;20867;-77
2022/02/25 02:55:17;;;;;;;8.50;7.83;;;2.20;99.90;;;;;;4983704;28;20458;-77
2022/02/25 02:57:44;;;;;;;7.70;7.30;;;2.20;99.90;;;;;;4979290;28;20492;-77
2022/02/25 03:00:12;;;;;;;8.27;7.50;;;2.10;99.90;;;;;;4985092;28;20442;-77
2022/02/25 03:02:39;;;;;;;8.50;7.80;;;2.10;99.90;;;;;;4988203;28;20501;-77
2022/02/25 03:05:07;;;;;;;8.20;7.57;;;2.00;99.90;;;;;;4982093;28;20461;-77
2022/02/25 03:07:34;;;;;;;8.40;7.80;;;1.90;99.90;;;;;;4980814;28;20485;-77
2022/02/25 03:10:01;;;;;;;8.17;7.57;;;1.90;99.90;;;;;;4987756;28;20450;-77
2022/02/25 03:12:29;;;;;;;8.10;7.70;;;1.80;99.90;;;;;;4975483;28;20473;-76
2022/02/25 03:14:56;;;;;;;10.23;8.30;;;1.70;99.90;;;;;;4984908;28;20438;-76
2022/02/25 03:17:24;;;;;;;8.60;8.10;;;1.70;99.90;;;;;;4984530;28;20945;-76
2022/02/25 03:19:51;;;;;;;8.53;7.90;;;1.70;99.90;;;;;;4993387;28;20442;-76
2022/02/25 03:22:17;;;;;;;8.47;7.70;;;1.70;99.90;;;;;;4990825;28;21126;-76
2022/02/25 03:24:53;;;;;;;9.03;8.33;;;1.60;99.90;;;;;;4981600;28;20460;-76
2022/02/25 03:27:20;;;;;;;9.77;8.07;;;1.60;99.90;;;;;;4988652;28;20475;-76
2022/02/25 03:29:48;;;;;;;8.30;7.70;;;1.60;99.90;;;;;;4987870;28;20438;-76
2022/02/25 03:32:15;;;;;;;9.20;8.50;;;1.60;99.90;;;;;;4967090;28;20893;-75
2022/02/25 03:34:42;;;;;;;8.83;8.07;;;1.60;99.90;;;;;;4985118;28;20432;-75
2022/02/25 03:37:09;;;;;;;8.67;7.97;;;1.60;99.90;;;;;;4966745;28;20473;-79
2022/02/25 03:39:36;;;;;;;9.03;8.13;;;1.60;99.90;;;;;;4971604;28;20513;-76
2022/02/25 03:42:04;;;;;;;8.33;7.77;;;1.50;99.90;;;;;;4982466;28;20505;-76
2022/02/25 03:44:31;;;;;;;8.20;7.70;;;1.50;99.90;;;;;;4973033;28;20451;-77
2022/02/25 03:46:59;;;;;;;8.37;7.80;;;1.50;99.90;;;;;;4988378;28;20562;-79
2022/02/25 03:49:26;;;;;;;8.57;7.87;;;1.60;99.90;;;;;;4996781;28;20945;-78
2022/02/25 03:51:53;;;;;;;9.03;8.30;;;1.60;99.90;;;;;;4988202;28;20476;-78
2022/02/25 03:54:21;;;;;;;8.13;7.60;;;1.50;99.90;;;;;;4967015;28;20454;-78
2022/02/25 03:56:47;;;;;;;8.80;8.00;;;1.60;99.90;;;;;;4974335;28;20469;-78
2022/02/25 03:59:15;;;;;;;8.80;8.20;;;1.50;99.90;;;;;;4978889;28;20841;-78
2022/02/25 04:01:41;;;;;;;9.43;8.40;;;1.60;99.90;;;;;;4978548;28;20456;-79
2022/02/25 04:04:09;;;;;;;8.90;8.30;;;1.60;99.90;;;;;;4997719;28;20964;-78
2022/02/25 04:06:36;;;;;;;8.60;8.10;;;1.50;99.90;;;;;;4976057;28;20528;-78
2022/02/25 04:09:03;;;;;;;8.33;7.83;;;1.60;99.90;;;;;;4971978;28;20458;-77
2022/02/25 04:11:30;;;;;;;9.40;8.60;;;1.60;99.90;;;;;;4973931;28;20457;-78
2022/02/25 04:13:57;;;;;;;8.90;8.30;;;1.60;99.90;;;;;;4990684;28;21000;-78
2022/02/25 04:16:23;;;;;;;9.00;8.40;;;1.60;99.90;;;;;;4969117;28;20468;-79
2022/02/25 04:18:50;;;;;;;8.43;7.93;;;1.60;99.90;;;;;;4985442;28;20456;-78
2022/02/25 04:21:18;;;;;;;8.67;8.00;;;1.60;99.90;;;;;;4969548;28;20486;-81
2022/02/25 04:23:45;;;;;;;8.40;7.90;;;1.60;99.90;;;;;;4971287;28;20460;-78
2022/02/25 04:26:12;;;;;;;9.23;8.37;;;1.50;99.90;;;;;;4973500;28;20483;-78
2022/02/25 04:28:39;;;;;;;9.10;8.30;;;1.50;99.90;;;;;;4971478;28;20451;-82
2022/02/25 04:31:06;;;;;;;9.40;8.70;;;1.50;99.90;;;;;;4984387;28;20454;-79
2022/02/25 04:33:33;;;;;;;9.10;8.40;;;1.60;99.90;;;;;;4976956;28;20527;-84
2022/02/25 04:36:00;;;;;;;8.70;8.00;;;1.60;99.90;;;;;;4995588;28;21231;-83
2022/02/25 04:38:28;;;;;;;8.53;7.93;;;1.50;99.90;;;;;;4970992;28;20446;-79
2022/02/25 04:41:01;;;;;;;8.43;7.77;;;1.50;99.90;;;;;;4973044;28;20479;-75
2022/02/25 04:43:28;;;;;;;8.70;8.20;;;1.50;99.90;;;;;;4975119;28;20443;-77
2022/02/25 04:45:55;;;;;;;8.67;7.97;;;1.50;99.90;;;;;;4973410;28;20482;-78
2022/02/25 04:48:22;;;;;;;8.90;8.20;;;1.50;99.90;;;;;;4981593;28;20500;-78
2022/02/25 04:50:49;;;;;;;8.47;7.97;;;1.50;99.90;;;;;;5006727;28;20441;-77
2022/02/25 04:53:16;;;;;;;8.63;8.03;;;1.50;99.90;;;;;;4967230;28;20813;-77
2022/02/25 04:55:46;;;;;;;8.43;7.90;;;1.50;99.90;;;;;;4983559;28;20496;-75
2022/02/25 04:58:13;;;;;;;9.57;8.70;;;1.40;99.90;;;;;;4988923;28;20434;-76
2022/02/25 05:00:40;;;;;;;9.50;8.70;;;1.40;99.90;;;;;;4967820;28;20457;-76
2022/02/25 05:03:07;;;;;;;9.40;8.47;;;1.40;99.90;;;;;;4984908;28;20459;-77
2022/02/25 05:05:34;;;;;;;9.27;8.47;;;1.50;99.90;;;;;;4982274;28;20473;-79
2022/02/25 05:08:01;;;;;;;9.63;8.80;;;1.40;99.90;;;;;;4996708;28;20485;-79
2022/02/25 05:10:28;;;;;;;9.73;8.93;;;1.40;99.90;;;;;;4993388;28;20860;-78
2022/02/25 05:12:57;;;;;;;9.43;8.70;;;1.50;99.90;;;;;;4978221;28;20828;-80
2022/02/25 05:20:53;;;;;;;9.57;8.67;;;1.40;99.90;;;;;;4985575;28;20968;-77
2022/02/25 05:23:20;;;;;;;9.10;8.50;;;1.40;99.90;;;;;;4974334;28;20532;-77
2022/02/25 05:25:47;;;;;;;9.10;8.30;;;1.40;99.90;;;;;;4973085;28;20483;-77
2022/02/25 05:28:15;;;;;;;9.53;8.60;;;1.40;99.90;;;;;;4992929;28;20832;-77
2022/02/25 05:30:42;;;;;;;9.40;8.60;;;1.40;99.90;;;;;;5007263;28;20932;-77
2022/02/25 05:33:09;;;;;;;9.03;8.27;;;1.40;99.90;;;;;;4998304;28;20441;-77
2022/02/25 05:35:36;;;;;;;9.13;8.33;;;1.40;99.90;;;;;;5004359;28;20965;-77
2022/02/25 05:38:05;;;;;;;9.90;9.03;;;1.40;99.90;;;;;;4989207;28;20537;-78
2022/02/25 05:40:32;;;;;;;9.43;8.80;;;1.40;99.90;;;;;;5002988;28;20446;-77
2022/02/25 05:43:00;;;;;;;10.00;9.03;;;1.30;99.90;;;;;;5010980;28;20459;-77
2022/02/25 05:45:29;;;;;;;9.77;8.80;;;1.30;99.90;;;;;;5021874;28;20533;-80
2022/02/25 05:47:56;;;;;;;10.00;9.03;;;1.40;99.90;;;;;;5019229;28;20480;-81
2022/02/25 05:50:24;;;;;;;9.93;8.97;;;1.40;99.90;;;;;;5022294;28;20437;-83
2022/02/25 05:52:51;;;;;;;10.33;9.00;;;1.40;99.90;;;;;;4984438;28;20954;-82
2022/02/25 05:55:20;;;;;;;10.30;9.37;;;1.40;99.90;;;;;;5006914;28;20448;-80
2022/02/25 05:57:47;;;;;;;9.80;8.80;;;1.40;99.90;;;;;;4999572;28;20476;-80
2022/02/25 06:00:16;;;;;;;10.67;9.30;;;1.40;99.90;;;;;;4989853;28;20833;-79
2022/02/25 06:02:45;;;;;;;10.03;9.13;;;1.40;99.90;;;;;;5025680;28;20481;-80
2022/02/25 06:05:14;;;;;;;10.33;9.53;;;1.40;99.90;;;;;;5003023;28;20508;-80
2022/02/25 06:07:41;;;;;;;10.20;9.27;;;1.40;99.90;;;;;;5003823;28;20530;-81
2022/02/25 06:10:09;;;;;;;10.93;9.10;;;1.40;99.90;;;;;;4982432;28;20459;-81
2022/02/25 06:12:37;;;;;;;10.57;9.53;;;1.40;99.90;;;;;;4983858;28;20871;-80
2022/02/25 06:15:05;;;;;;;9.70;8.93;;;1.40;99.90;;;;;;4985743;28;20457;-81
2022/02/25 06:17:32;;;;;;;9.87;9.20;;;1.40;99.90;;;;;;5009080;28;20473;-79
2022/02/25 06:20:00;;;;;;;9.97;9.27;;;1.50;99.90;;;;;;4990452;28;20464;-80
2022/02/25 06:22:27;;;;;;;9.77;9.00;;;1.50;99.90;;;;;;4996559;28;20464;-80
2022/02/25 06:24:54;;;;;;;10.40;9.27;;;1.50;99.90;;;;;;5013083;28;20747;-80
2022/02/25 06:27:21;;;;;;;9.77;9.03;;;1.60;99.90;;;;;;4987266;28;20535;-80
2022/02/25 06:29:48;;;;;;;11.30;9.73;;;1.60;99.90;;;;;;4984298;28;20451;-81
2022/02/25 06:32:14;;;;;;;11.60;8.70;;;1.70;99.90;;;;;;5004683;28;20443;-80
2022/02/25 06:34:41;;;;;;;9.70;8.90;;;1.70;99.90;;;;;;4988184;28;20554;-80
2022/02/25 06:37:10;;;;;;;11.63;10.17;;;1.80;99.90;;;;;;5001870;28;21069;-80
2022/02/25 06:39:36;;;;;;;10.50;9.50;;;1.80;99.90;;;;;;5006586;28;20430;-81
2022/02/25 06:42:04;;;;;;;9.87;9.07;;;1.90;99.90;;;;;;4987691;28;20468;-80
2022/02/25 06:44:31;;;;;;;10.23;9.43;;;1.90;99.90;;;;;;5005074;28;20499;-80
2022/02/25 06:46:58;;;;;;;10.30;9.40;;;2.00;99.90;;;;;;5007793;28;20469;-80
2022/02/25 06:49:24;;;;;;;10.60;9.60;;;2.00;99.90;;;;;;5000503;28;20453;-80
2022/02/25 06:51:51;;;;;;;9.60;8.90;;;2.00;99.90;;;;;;4990777;28;20456;-81
2022/02/25 06:54:19;;;;;;;10.20;9.30;;;2.00;99.90;;;;;;4998920;28;20477;-81
2022/02/25 06:56:46;;;;;;;10.10;9.17;;;2.10;99.90;;;;;;5015051;28;20467;-81
2022/02/25 06:59:13;;;;;;;10.63;9.73;;;2.50;99.90;;;;;;4997778;28;20456;-79
2022/02/25 07:01:40;;;;;;;9.17;8.37;;;2.80;99.90;;;;;;4988450;28;20485;-82
2022/02/25 07:04:08;;;;;;;9.97;9.13;;;3.30;99.90;;;;;;4997375;28;20441;-77
2022/02/25 07:06:38;;;;;;;11.23;9.47;;;3.60;99.90;;;;;;5022084;28;20980;-77
2022/02/25 07:09:05;;;;;;;10.40;9.20;;;3.90;99.90;;;;;;5007246;28;20470;-78
2022/02/25 07:11:34;;;;;;;10.90;9.80;;;4.20;99.90;;;;;;5026180;28;20197;-78
2022/02/25 07:14:01;;;;;;;10.50;9.70;;;4.20;99.90;;;;;;4997176;28;20964;-78
2022/02/25 07:16:28;;;;;;;10.43;9.53;;;4.20;99.90;;;;;;5006260;28;20464;-77
2022/02/25 07:18:54;;;;;;;10.60;9.70;;;4.30;99.90;;;;;;5006918;28;20574;-78
2022/02/25 07:21:21;;;;;;;10.63;9.60;;;4.40;99.90;;;;;;4998057;28;20205;-78
2022/02/25 07:23:48;;;;;;;9.87;9.07;;;4.40;99.90;;;;;;4987581;28;20205;-78
2022/02/25 07:26:15;;;;;;;10.20;9.20;;;4.40;99.90;;;;;;5032939;28;20215;-78
2022/02/25 07:28:43;;;;;;;13.83;9.60;;;4.30;99.90;;;;;;5019234;28;20205;-80
2022/02/25 07:31:10;;;;;;;10.40;9.60;;;4.20;99.90;;;;;;5016943;28;20207;-80
2022/02/25 07:33:37;;;;;;;11.77;9.97;;;4.20;99.90;;;;;;5009736;28;20658;-78
2022/02/25 07:36:04;;;;;;;10.83;9.80;;;4.10;99.90;;;;;;4991630;28;20228;-79
2022/02/25 07:38:31;;;;;;;10.43;9.53;;;4.20;99.90;;;;;;4985226;28;20224;-80
2022/02/25 07:40:58;;;;;;;11.20;9.90;;;4.20;99.90;;;;;;5015325;28;20207;-80
2022/02/25 07:43:25;;;;;;;10.60;9.80;;;4.20;99.90;;;;;;4991897;28;20208;-80
2022/02/25 07:45:53;;;;;;;10.40;9.50;;;4.20;99.90;;;;;;5009529;28;20223;-81
2022/02/25 07:48:21;;;;;;;11.40;10.13;;;4.30;99.90;;;;;;4999289;28;20228;-80
2022/02/25 07:50:49;;;;;;;9.60;8.43;;;4.60;99.90;;;;;;5011131;28;20224;-80
2022/02/25 07:53:16;;;;;;;10.07;9.00;;;5.00;99.90;;;;;;5000792;28;20569;-80
2022/02/25 07:55:44;;;;;;;8.00;7.30;;;5.50;99.90;;;;;;4983121;28;20283;-79
2022/02/25 07:58:11;;;;;;;3.97;2.97;;;6.10;99.90;;;;;;4989148;28;20208;-80
2022/02/25 08:00:37;;;;;;;5.17;3.57;;;6.50;99.90;;;;;;5029482;28;20207;-79
2022/02/25 08:03:06;;;;;;;4.13;2.60;;;6.40;99.90;;;;;;5029929;28;20208;-80
2022/02/25 08:05:34;;;;;;;7.37;3.00;;;6.10;99.90;;;;;;5001444;28;20201;-78
2022/02/25 08:08:02;;;;;;;9.50;8.60;;;5.90;99.90;;;;;;5007992;28;20209;-79
2022/02/25 08:10:30;;;;;;;8.77;7.93;;;5.60;99.90;;;;;;5006950;28;20686;-79
2022/02/25 08:12:57;;;;;;;8.70;7.90;;;5.30;99.90;;;;;;4986837;28;20197;-80
2022/02/25 08:15:24;;;;;;;8.87;8.03;;;5.10;99.90;;;;;;4997398;28;20208;-80
2022/02/25 08:17:51;;;;;;;9.77;8.57;;;4.90;99.90;;;;;;5002872;28;20204;-79
2022/02/25 08:20:19;;;;;;;8.40;7.60;;;4.80;99.90;;;;;;4999521;28;20583;-80
2022/02/25 08:22:46;;;;;;;11.93;9.17;;;4.80;99.90;;;;;;5028647;28;20191;-80
2022/02/25 08:25:13;;;;;;;11.83;8.93;;;4.70;99.90;;;;;;5016774;28;20258;-79
2022/02/25 08:27:40;;;;;;;10.13;9.13;;;4.80;99.90;;;;;;5005666;28;20213;-79
2022/02/25 08:30:14;;;;;;;10.43;8.60;;;5.10;99.90;;;;;;5012251;28;20216;-80
2022/02/25 08:32:42;;;;;;;14.10;8.60;;;5.80;99.90;;;;;;4993718;28;20201;-80
2022/02/25 08:35:09;;;;;;;10.00;8.47;;;6.40;99.90;;;;;;4979030;28;20236;-77
2022/02/25 08:37:38;;;;;;;11.03;8.97;;;6.90;99.90;;;;;;4988618;28;20224;-79
2022/02/25 08:40:06;;;;;;;9.83;9.00;;;7.40;99.90;;;;;;4986509;28;20201;-78
2022/02/25 08:42:35;;;;;;;11.30;8.43;;;7.80;99.90;;;;;;4999925;28;20199;-80
2022/02/25 08:45:07;;;;;;;9.00;8.00;;;8.10;99.90;;;;;;4985427;28;20208;-79
2022/02/25 08:47:34;;;;;;;5.33;2.60;;;8.40;99.90;;;;;;5006225;28;20215;-79
2022/02/25 08:50:01;;;;;;;8.17;2.63;;;8.70;99.90;;;;;;4994233;28;20234;-79
2022/02/25 08:52:28;;;;;;;6.10;2.57;;;8.90;99.90;;;;;;5004552;28;20650;-79
2022/02/25 08:54:56;;;;;;;9.43;7.53;;;9.10;99.90;;;;;;5010349;28;20587;-79
2022/02/25 08:57:23;;;;;;;7.10;6.27;;;9.10;99.90;;;;;;4987781;28;20234;-78
2022/02/25 08:59:50;;;;;;;11.10;7.83;;;9.30;99.90;;;;;;4987496;28;20216;-79
2022/02/25 09:02:17;;;;;;;8.37;7.43;;;9.50;99.90;;;;;;5011689;28;20559;-79
2022/02/25 09:04:44;;;;;;;8.90;8.17;;;9.60;99.90;;;;;;5006945;28;20264;-79
2022/02/25 09:07:11;;;;;;;8.97;8.17;;;9.80;99.90;;;;;;5018533;28;20223;-80
2022/02/25 09:09:38;;;;;;;7.50;6.90;;;10.00;99.90;;;;;;4996121;28;20646;-79
2022/02/25 09:12:07;;;;;;;10.60;9.50;;;10.20;99.90;;;;;;4990386;28;20201;-79
2022/02/25 09:14:34;;;;;;;8.23;7.30;;;10.40;99.90;;;;;;5028519;28;20196;-79
2022/02/25 09:17:01;;;;;;;7.90;6.30;;;10.10;99.90;;;;;;5013915;28;20242;-80
2022/02/25 09:19:28;;;;;;;5.93;3.57;;;10.00;99.90;;;;;;5031330;28;20214;-78
2022/02/25 09:21:55;;;;;;;4.67;4.20;;;9.90;99.90;;;;;;5016860;28;20227;-80
2022/02/25 09:24:22;;;;;;;5.47;2.77;;;10.00;99.90;;;;;;5006642;28;20212;-81
2022/02/25 09:26:49;;;;;;;7.00;2.90;;;9.80;99.90;;;;;;5011645;28;20216;-81
2022/02/25 09:29:21;;;;;;;4.23;2.77;;;10.00;99.90;;;;;;5000709;28;20221;-80
2022/02/25 09:31:47;;;;;;;7.57;4.40;;;10.10;99.90;;;;;;4985109;28;20236;-80
2022/02/25 09:34:14;;;;;;;6.40;5.80;;;10.00;99.90;;;;;;4992358;28;20658;-79
2022/02/25 09:36:41;;;;;;;8.27;6.23;;;9.90;99.90;;;;;;5015403;28;20705;-80
2022/02/25 09:39:10;;;;;;;9.03;8.20;;;9.70;99.90;;;;;;5004915;28;20201;-80
2022/02/25 09:41:38;;;;;;;8.70;7.90;;;9.10;99.90;;;;;;5030167;28;20199;-81
2022/02/25 09:44:05;;;;;;;10.30;9.30;;;9.00;99.90;;;;;;5028072;28;20208;-81
2022/02/25 09:46:33;;;;;;;9.27;8.43;;;8.90;99.90;;;;;;5015748;28;20226;-81
2022/02/25 09:49:01;;;;;;;9.73;8.73;;;9.00;99.90;;;;;;4989631;28;20706;-81
2022/02/25 09:51:28;;;;;;;9.50;8.47;;;8.80;99.90;;;;;;4996310;28;20268;-82
2022/02/25 09:53:55;;;;;;;9.33;8.47;;;9.00;99.90;;;;;;5009899;28;20201;-81
2022/02/25 09:56:24;;;;;;;9.57;8.77;;;9.30;99.90;;;;;;4994223;28;20259;-80
2022/02/25 09:58:51;;;;;;;10.10;9.30;;;9.50;99.90;;;;;;5005340;28;20272;-81
2022/02/25 10:01:18;;;;;;;11.17;8.87;;;9.30;99.90;;;;;;5010004;28;20590;-81
2022/02/25 10:03:53;;;;;;;9.27;8.43;;;9.10;99.90;;;;;;5015377;28;20261;-82
2022/02/25 10:06:20;;;;;;;11.53;9.10;;;9.10;99.90;;;;;;5031084;28;20215;-78
2022/02/25 10:08:47;;;;;;;9.37;8.43;;;9.10;99.90;;;;;;5016986;28;20226;-79
2022/02/25 10:11:14;;;;;;;8.97;8.27;;;9.20;99.90;;;;;;4997116;28;20213;-81
2022/02/25 10:13:41;;;;;;;8.50;7.70;;;9.20;99.90;;;;;;4997419;28;20269;-79
2022/02/25 10:16:11;;;;;;;11.73;8.20;;;9.20;99.90;;;;;;4983858;28;20374;-81
2022/02/25 10:18:38;;;;;;;8.27;7.40;;;8.90;99.90;;;;;;5004749;28;20196;-80
2022/02/25 10:21:09;;;;;;;8.83;7.50;;;8.90;99.90;;;;;;4999325;28;20328;-79
2022/02/25 10:23:38;;;;;;;8.20;7.57;;;8.90;99.90;;;;;;5003109;28;20208;-80
2022/02/25 10:26:16;;;;;;;8.33;7.50;;;8.90;99.90;;;;;;5004683;28;20736;-80
2022/02/25 10:28:46;;;;;;;8.00;7.23;;;8.90;99.90;;;;;;5000218;28;20256;-80
2022/02/25 10:31:21;;;;;;;8.20;7.47;;;8.80;99.90;;;;;;4987035;28;20273;-80
2022/02/25 10:34:00;;;;;;;9.27;7.50;;;8.60;99.90;;;;;;5014753;28;20196;-81
2022/02/25 10:36:35;;;;;;;8.67;7.97;;;8.30;99.90;;;;;;5007465;28;20708;-81
2022/02/25 10:39:04;;;;;;;8.97;7.30;;;8.40;99.90;;;;;;4999415;28;20200;-79
2022/02/25 10:41:31;;;;;;;9.47;8.00;;;8.40;99.90;;;;;;5013406;28;20227;-79
2022/02/25 10:43:57;;;;;;;8.30;7.60;;;8.50;99.90;;;;;;5017373;28;20209;-78
2022/02/25 10:46:25;;;;;;;8.93;8.10;;;8.40;99.90;;;;;;4997730;28;20212;-82
2022/02/25 10:48:51;;;;;;;7.97;6.50;;;8.10;99.90;;;;;;4991886;28;20216;-81
2022/02/25 10:51:23;;;;;;;6.40;5.80;;;7.80;99.90;;;;;;4991755;28;20208;-80
2022/02/25 10:53:54;;;;;;;6.30;5.33;;;7.70;99.90;;;;;;4996383;28;20224;-80
2022/02/25 10:56:23;;;;;;;6.17;5.57;;;7.80;99.90;;;;;;4994580;28;20706;-79
2022/02/25 10:58:51;;;;;;;7.80;5.70;;;8.00;99.90;;;;;;5007407;28;20254;-80
2022/02/25 11:01:23;;;;;;;6.30;4.80;;;8.10;99.90;;;;;;4990286;28;20204;-81
2022/02/25 11:04:01;;;;;;;8.23;4.80;;;8.10;99.90;;;;;;4994142;28;20214;-81
2022/02/25 11:06:30;;;;;;;5.87;4.50;;;8.00;99.90;;;;;;4992784;28;20217;-81
2022/02/25 11:08:59;;;;;;;5.47;3.80;;;7.90;99.90;;;;;;4995848;28;20258;-81
2022/02/25 11:11:26;;;;;;;5.83;5.27;;;7.70;99.90;;;;;;5025239;28;20683;-81
2022/02/25 11:13:53;;;;;;;10.97;7.67;;;7.40;99.90;;;;;;5011749;28;20210;-82
2022/02/25 11:16:21;;;;;;;8.60;7.80;;;7.50;99.90;;;;;;5015032;28;20238;-79
2022/02/25 11:18:49;;;;;;;10.70;7.80;;;7.70;99.90;;;;;;5014315;28;20215;-78
2022/02/25 11:21:17;;;;;;;9.77;8.97;;;7.90;99.90;;;;;;4999272;28;20211;-77
2022/02/25 11:23:45;;;;;;;8.83;8.23;;;7.90;99.90;;;;;;5013554;28;20208;-79
2022/02/25 11:26:14;;;;;;;8.50;7.80;;;8.00;99.90;;;;;;4998177;28;20241;-78
2022/02/25 11:28:42;;;;;;;9.57;8.20;;;8.10;99.90;;;;;;5008648;28;20216;-78
2022/02/25 11:31:15;;;;;;;8.27;7.70;;;8.20;99.90;;;;;;5002654;28;20228;-79
2022/02/25 11:33:42;;;;;;;8.67;7.87;;;8.20;99.90;;;;;;5013789;23;20311;-79
2022/02/25 11:36:12;;;;;;;8.43;7.63;;;8.30;99.90;;;;;;5013208;28;20203;-79
2022/02/25 11:38:41;;;;;;;11.77;7.77;;;8.20;99.90;;;;;;5011685;28;20243;-77
2022/02/25 11:41:18;;;;;;;9.00;8.10;;;8.20;99.90;;;;;;4988738;28;20232;-79
2022/02/25 11:43:47;;;;;;;8.00;7.40;;;8.20;99.90;;;;;;5010674;28;20227;-76
2022/02/25 11:46:20;;;;;;;7.60;7.00;;;8.20;99.90;;;;;;4979510;28;20295;-79
2022/02/25 11:48:49;;;;;;;9.67;7.33;;;8.20;99.90;;;;;;4979390;28;20228;-81
2022/02/25 11:51:27;;;;;;;9.37;7.40;;;8.20;99.90;;;;;;4974405;28;20204;-75
2022/02/25 11:54:24;;;;;;;7.90;7.23;;;8.20;99.90;;;;;;4982554;28;20229;-76
2022/02/25 11:57:26;;;;;;;8.33;7.67;;;8.20;99.90;;;;;;4995092;28;20208;-76
2022/02/25 12:00:18;;;;;;;9.97;7.63;;;8.10;99.90;;;;;;4988548;28;20723;-78
2022/02/25 12:03:15;;;;;;;8.80;8.10;;;8.10;99.90;;;;;;4985695;28;20204;-78
2022/02/25 12:05:46;;;;;;;7.40;6.90;;;8.20;99.90;;;;;;4967562;28;20205;-76
2022/02/25 12:08:28;;;;;;;7.87;7.17;;;8.30;99.90;;;;;;4965446;28;20210;-76
2022/02/25 12:11:00;;;;;;;7.93;7.33;;;8.20;99.90;;;;;;4981973;28;20676;-76
2022/02/25 12:13:29;;;;;;;8.27;7.50;;;8.20;99.90;;;;;;4995581;28;20220;-76
2022/02/25 12:15:56;;;;;;;9.30;6.80;;;8.30;99.90;;;;;;4989873;28;20261;-76
2022/02/25 12:18:40;;;;;;;7.97;6.80;;;8.20;99.90;;;;;;5003089;28;20387;-76
2022/02/25 12:21:11;;;;;;;7.17;6.57;;;8.20;99.90;;;;;;4986243;28;20205;-77
2022/02/25 12:23:49;;;;;;;7.20;6.50;;;8.30;99.90;;;;;;4984171;28;20220;-77
2022/02/25 12:26:16;;;;;;;6.50;5.93;;;8.40;99.90;;;;;;4960488;28;20212;-77
2022/02/25 12:28:54;;;;;;;8.77;7.33;;;8.40;99.90;;;;;;4965115;28;20202;-76
2022/02/25 12:31:25;;;;;;;10.17;6.83;;;8.40;99.90;;;;;;4975395;28;20200;-77
2022/02/25 12:34:06;;;;;;;8.73;6.50;;;8.30;99.90;;;;;;4983959;28;20316;-76
2022/02/25 12:36:40;;;;;;;9.30;6.87;;;8.20;99.90;;;;;;4971999;28;20200;-76
2022/02/25 12:39:09;;;;;;;8.63;6.10;;;8.20;99.90;;;;;;4982363;28;20665;-78
2022/02/25 12:41:38;;;;;;;6.57;5.93;;;8.20;99.90;;;;;;4972377;28;20265;-79
2022/02/25 12:44:08;;;;;;;6.93;5.80;;;8.30;99.90;;;;;;4974515;28;20217;-76
2022/02/25 12:46:36;;;;;;;7.20;6.50;;;8.40;99.90;;;;;;4986289;28;20663;-76
2022/02/25 12:49:08;;;;;;;7.13;6.43;;;8.30;99.90;;;;;;4984268;28;20625;-76
2022/02/25 12:51:35;;;;;;;7.87;7.07;;;8.30;99.90;;;;;;4980233;28;20197;-76
2022/02/25 12:54:04;;;;;;;7.53;6.53;;;8.20;99.90;;;;;;4980397;28;20600;-77
2022/02/25 12:56:33;;;;;;;7.90;7.10;;;8.00;99.90;;;;;;4989838;28;20560;-77
2022/02/25 12:59:02;;;;;;;7.50;6.90;;;7.90;99.90;;;;;;4992645;28;20259;-76
2022/02/25 13:01:32;;;;;;;8.20;7.40;;;7.80;99.90;;;;;;4992366;28;20223;-76
2022/02/25 13:04:01;;;;;;;7.50;6.77;;;7.80;99.90;;;;;;4995895;28;20286;-77
2022/02/25 13:06:28;;;;;;;8.00;7.20;;;7.90;99.90;;;;;;4985878;28;20196;-77
2022/02/25 13:08:57;;;;;;;7.60;6.90;;;8.00;99.90;;;;;;4980454;28;20207;-76